sensor_id;sensor_type;location;lat;lon;timestamp;P1;durP1;ratioP1;P2;durP2;ratioP2
16837;SDS011;19510;54.486;9.046;2023-02-21T05:50:22;17.07;;;2.80;;
16837;SDS011;19510;54.486;9.046;2023-02-21T05:52:51;22.00;;;3.33;;
16837;SDS011;19510;54.486;9.046;2023-02-21T05:55:17;15.80;;;2.90;;
16837;SDS011;19510;54.486;9.046;2023-02-21T05:57:43;19.83;;;4.50;;
16837;SDS011;19510;54.486;9.046;2023-02-21T06:00:15;29.87;;;4.07;;
16837;SDS011;19510;54.486;9.046;2023-02-21T06:02:48;26.43;;;3.93;;
16837;SDS011;19510;54.486;9.046;2023-02-21T06:05:15;11.97;;;2.87;;
16837;SDS011;19510;54.486;9.046;2023-02-21T06:07:41;28.93;;;4.60;;
16837;SDS011;19510;54.486;9.046;2023-02-21T06:10:07;21.70;;;3.03;;
16837;SDS011;19510;54.486;9.046;2023-02-21T06:12:33;20.33;;;3.47;;
16837;SDS011;19510;54.486;9.046;2023-02-21T06:15:01;17.80;;;2.90;;
16837;SDS011;19510;54.486;9.046;2023-02-21T06:17:31;7.03;;;2.23;;
16837;SDS011;19510;54.486;9.046;2023-02-21T06:19:57;9.13;;;1.90;;
16837;SDS011;19510;54.486;9.046;2023-02-21T06:22:25;18.17;;;3.50;;
16837;SDS011;19510;54.486;9.046;2023-02-21T06:24:51;16.93;;;3.03;;
16837;SDS011;19510;54.486;9.046;2023-02-21T06:27:17;24.67;;;3.27;;
16837;SDS011;19510;54.486;9.046;2023-02-21T06:29:42;18.80;;;3.10;;
16837;SDS011;19510;54.486;9.046;2023-02-21T06:32:10;24.87;;;3.23;;
16837;SDS011;19510;54.486;9.046;2023-02-21T06:34:39;18.03;;;3.27;;
16837;SDS011;19510;54.486;9.046;2023-02-21T06:37:07;16.13;;;3.10;;
16837;SDS011;19510;54.486;9.046;2023-02-21T06:39:32;11.93;;;2.80;;
16837;SDS011;19510;54.486;9.046;2023-02-21T06:41:58;27.10;;;3.53;;
16837;SDS011;19510;54.486;9.046;2023-02-21T06:44:24;25.30;;;2.80;;
16837;SDS011;19510;54.486;9.046;2023-02-21T06:46:49;27.10;;;3.20;;
16837;SDS011;19510;54.486;9.046;2023-02-21T06:49:18;19.70;;;3.20;;
16837;SDS011;19510;54.486;9.046;2023-02-21T06:51:44;24.93;;;4.17;;
16837;SDS011;19510;54.486;9.046;2023-02-21T06:54:11;19.17;;;3.30;;
16837;SDS011;19510;54.486;9.046;2023-02-21T06:56:41;26.90;;;3.70;;
16837;SDS011;19510;54.486;9.046;2023-02-21T06:59:08;16.33;;;3.30;;
16837;SDS011;19510;54.486;9.046;2023-02-21T07:01:34;25.00;;;3.87;;
16837;SDS011;19510;54.486;9.046;2023-02-21T07:04:00;16.03;;;2.93;;
16837;SDS011;19510;54.486;9.046;2023-02-21T07:06:25;25.40;;;4.07;;
16837;SDS011;19510;54.486;9.046;2023-02-21T07:08:52;16.30;;;2.60;;
16837;SDS011;19510;54.486;9.046;2023-02-21T07:11:20;16.37;;;3.07;;
16837;SDS011;19510;54.486;9.046;2023-02-21T07:13:48;13.30;;;2.60;;
16837;SDS011;19510;54.486;9.046;2023-02-21T07:16:18;15.83;;;3.40;;
16837;SDS011;19510;54.486;9.046;2023-02-21T07:18:45;15.37;;;2.67;;
16837;SDS011;19510;54.486;9.046;2023-02-21T07:21:13;18.27;;;3.63;;
16837;SDS011;19510;54.486;9.046;2023-02-21T07:23:41;17.17;;;3.30;;
16837;SDS011;19510;54.486;9.046;2023-02-21T07:26:08;15.70;;;2.77;;
16837;SDS011;19510;54.486;9.046;2023-02-21T07:28:35;19.67;;;3.57;;
16837;SDS011;19510;54.486;9.046;2023-02-21T07:31:00;17.13;;;3.53;;
16837;SDS011;19510;54.486;9.046;2023-02-21T07:33:26;17.77;;;2.70;;
16837;SDS011;19510;54.486;9.046;2023-02-21T07:35:52;27.93;;;3.20;;
16837;SDS011;19510;54.486;9.046;2023-02-21T07:38:23;32.00;;;4.50;;
16837;SDS011;19510;54.486;9.046;2023-02-21T07:40:50;18.63;;;3.30;;
16837;SDS011;19510;54.486;9.046;2023-02-21T07:43:21;22.10;;;2.90;;
16837;SDS011;19510;54.486;9.046;2023-02-21T07:45:49;26.90;;;4.13;;
16837;SDS011;19510;54.486;9.046;2023-02-21T07:48:15;24.43;;;3.30;;
16837;SDS011;19510;54.486;9.046;2023-02-21T07:50:41;23.87;;;4.37;;
16837;SDS011;19510;54.486;9.046;2023-02-21T07:53:08;23.80;;;3.00;;
16837;SDS011;19510;54.486;9.046;2023-02-21T07:55:40;13.93;;;3.17;;
16837;SDS011;19510;54.486;9.046;2023-02-21T07:58:06;23.67;;;3.53;;
16837;SDS011;19510;54.486;9.046;2023-02-21T08:00:32;31.43;;;2.77;;
16837;SDS011;19510;54.486;9.046;2023-02-21T08:02:58;23.30;;;3.37;;
16837;SDS011;19510;54.486;9.046;2023-02-21T08:05:24;23.57;;;3.73;;
16837;SDS011;19510;54.486;9.046;2023-02-21T08:07:51;16.27;;;3.30;;
16837;SDS011;19510;54.486;9.046;2023-02-21T08:10:23;14.77;;;2.63;;
16837;SDS011;19510;54.486;9.046;2023-02-21T08:12:50;16.83;;;2.83;;
16837;SDS011;19510;54.486;9.046;2023-02-21T08:15:16;18.80;;;3.80;;
16837;SDS011;19510;54.486;9.046;2023-02-21T08:17:43;19.23;;;3.27;;
16837;SDS011;19510;54.486;9.046;2023-02-21T08:20:11;15.27;;;3.27;;
16837;SDS011;19510;54.486;9.046;2023-02-21T08:22:37;15.13;;;3.23;;
16837;SDS011;19510;54.486;9.046;2023-02-21T08:25:02;14.33;;;3.33;;
16837;SDS011;19510;54.486;9.046;2023-02-21T08:27:29;21.87;;;2.97;;
16837;SDS011;19510;54.486;9.046;2023-02-21T08:29:54;21.80;;;4.87;;
16837;SDS011;19510;54.486;9.046;2023-02-21T08:32:20;24.83;;;4.03;;
16837;SDS011;19510;54.486;9.046;2023-02-21T08:34:46;15.30;;;3.60;;
16837;SDS011;19510;54.486;9.046;2023-02-21T08:37:13;25.90;;;3.70;;
16837;SDS011;19510;54.486;9.046;2023-02-21T08:39:44;19.03;;;3.70;;
16837;SDS011;19510;54.486;9.046;2023-02-21T08:42:11;21.67;;;3.57;;
16837;SDS011;19510;54.486;9.046;2023-02-21T08:44:38;18.57;;;2.83;;
16837;SDS011;19510;54.486;9.046;2023-02-21T08:47:03;20.57;;;3.93;;
16837;SDS011;19510;54.486;9.046;2023-02-21T08:49:32;5.83;;;2.00;;
16837;SDS011;19510;54.486;9.046;2023-02-21T08:51:57;19.27;;;2.70;;
16837;SDS011;19510;54.486;9.046;2023-02-21T08:54:23;22.10;;;3.47;;
16837;SDS011;19510;54.486;9.046;2023-02-21T08:56:49;16.47;;;3.70;;
16837;SDS011;19510;54.486;9.046;2023-02-21T08:59:16;10.37;;;2.70;;
16837;SDS011;19510;54.486;9.046;2023-02-21T09:01:41;16.00;;;2.60;;
16837;SDS011;19510;54.486;9.046;2023-02-21T09:04:07;17.80;;;2.80;;
16837;SDS011;19510;54.486;9.046;2023-02-21T09:06:33;21.03;;;2.97;;
16837;SDS011;19510;54.486;9.046;2023-02-21T09:08:58;23.17;;;3.60;;
16837;SDS011;19510;54.486;9.046;2023-02-21T09:11:24;21.63;;;3.33;;
16837;SDS011;19510;54.486;9.046;2023-02-21T09:13:53;14.03;;;2.27;;
16837;SDS011;19510;54.486;9.046;2023-02-21T09:16:19;13.30;;;2.95;;
16837;SDS011;19510;54.486;9.046;2023-02-21T09:18:52;24.10;;;2.80;;
16837;SDS011;19510;54.486;9.046;2023-02-21T09:21:19;16.65;;;3.67;;
16837;SDS011;19510;54.486;9.046;2023-02-21T09:23:44;15.63;;;3.53;;
16837;SDS011;19510;54.486;9.046;2023-02-21T09:26:10;18.33;;;4.20;;
16837;SDS011;19510;54.486;9.046;2023-02-21T09:28:38;19.20;;;3.07;;
16837;SDS011;19510;54.486;9.046;2023-02-21T09:31:07;26.90;;;3.35;;
16837;SDS011;19510;54.486;9.046;2023-02-21T09:33:35;24.40;;;3.30;;
16837;SDS011;19510;54.486;9.046;2023-02-21T09:36:05;20.05;;;3.90;;
16837;SDS011;19510;54.486;9.046;2023-02-21T09:38:32;17.90;;;3.13;;
16837;SDS011;19510;54.486;9.046;2023-02-21T09:41:00;21.20;;;2.40;;
16837;SDS011;19510;54.486;9.046;2023-02-21T09:43:33;21.27;;;3.55;;
16837;SDS011;19510;54.486;9.046;2023-02-21T09:46:04;12.35;;;3.55;;
16837;SDS011;19510;54.486;9.046;2023-02-21T09:48:52;29.33;;;4.03;;
16837;SDS011;19510;54.486;9.046;2023-02-21T09:51:18;16.10;;;3.20;;
16837;SDS011;19510;54.486;9.046;2023-02-21T09:53:45;17.87;;;3.87;;
16837;SDS011;19510;54.486;9.046;2023-02-21T09:56:28;21.23;;;3.80;;
16837;SDS011;19510;54.486;9.046;2023-02-21T09:58:59;15.32;;;3.45;;
16837;SDS011;19510;54.486;9.046;2023-02-21T10:04:10;19.60;;;3.70;;
16837;SDS011;19510;54.486;9.046;2023-02-21T10:07:01;25.60;;;2.80;;
16837;SDS011;19510;54.486;9.046;2023-02-21T10:09:43;14.77;;;2.90;;
16837;SDS011;19510;54.486;9.046;2023-02-21T10:12:19;11.82;;;2.45;;
16837;SDS011;19510;54.486;9.046;2023-02-21T10:17:48;9.95;;;2.33;;
16837;SDS011;19510;54.486;9.046;2023-02-21T10:20:28;15.48;;;2.10;;
16837;SDS011;19510;54.486;9.046;2023-02-21T10:22:59;16.05;;;2.83;;
16837;SDS011;19510;54.486;9.046;2023-02-21T10:25:28;12.13;;;2.58;;
16837;SDS011;19510;54.486;9.046;2023-02-21T10:27:56;15.90;;;2.83;;
16837;SDS011;19510;54.486;9.046;2023-02-21T10:30:25;14.75;;;3.47;;
16837;SDS011;19510;54.486;9.046;2023-02-21T10:32:53;20.55;;;2.65;;
16837;SDS011;19510;54.486;9.046;2023-02-21T10:35:19;18.02;;;3.13;;
16837;SDS011;19510;54.486;9.046;2023-02-21T10:37:53;27.70;;;4.68;;
16837;SDS011;19510;54.486;9.046;2023-02-21T10:43:10;17.00;;;2.75;;
16837;SDS011;19510;54.486;9.046;2023-02-21T10:45:44;17.13;;;3.20;;
16837;SDS011;19510;54.486;9.046;2023-02-21T10:48:17;21.40;;;4.35;;
16837;SDS011;19510;54.486;9.046;2023-02-21T10:50:53;15.10;;;2.80;;
16837;SDS011;19510;54.486;9.046;2023-02-21T10:53:30;15.68;;;3.53;;
16837;SDS011;19510;54.486;9.046;2023-02-21T10:58:47;15.00;;;2.67;;
16837;SDS011;19510;54.486;9.046;2023-02-21T11:06:37;18.33;;;3.10;;
16837;SDS011;19510;54.486;9.046;2023-02-21T11:12:02;17.52;;;2.70;;
16837;SDS011;19510;54.486;9.046;2023-02-21T11:17:18;17.17;;;2.38;;
16837;SDS011;19510;54.486;9.046;2023-02-21T11:19:57;19.38;;;2.90;;
16837;SDS011;19510;54.486;9.046;2023-02-21T11:25:04;11.13;;;2.92;;
16837;SDS011;19510;54.486;9.046;2023-02-21T11:27:58;14.68;;;2.53;;
16837;SDS011;19510;54.486;9.046;2023-02-21T11:30:35;10.40;;;2.10;;
16837;SDS011;19510;54.486;9.046;2023-02-21T11:33:05;20.35;;;2.75;;
16837;SDS011;19510;54.486;9.046;2023-02-21T11:35:43;16.20;;;3.00;;
16837;SDS011;19510;54.486;9.046;2023-02-21T11:41:02;15.00;;;2.92;;
16837;SDS011;19510;54.486;9.046;2023-02-21T11:43:48;9.95;;;2.10;;
16837;SDS011;19510;54.486;9.046;2023-02-21T11:46:33;11.90;;;2.25;;
16837;SDS011;19510;54.486;9.046;2023-02-21T11:51:42;14.23;;;2.22;;
16837;SDS011;19510;54.486;9.046;2023-02-21T11:54:45;14.02;;;2.10;;
16837;SDS011;19510;54.486;9.046;2023-02-21T12:05:41;15.15;;;2.88;;
16837;SDS011;19510;54.486;9.046;2023-02-21T12:08:34;23.10;;;3.38;;
16837;SDS011;19510;54.486;9.046;2023-02-21T12:19:38;16.20;;;2.65;;
16837;SDS011;19510;54.486;9.046;2023-02-21T12:22:23;13.45;;;2.38;;
16837;SDS011;19510;54.486;9.046;2023-02-21T12:27:39;18.30;;;2.45;;
16837;SDS011;19510;54.486;9.046;2023-02-21T12:44:25;11.60;;;2.03;;
16837;SDS011;19510;54.486;9.046;2023-02-21T12:47:17;16.30;;;3.20;;
16837;SDS011;19510;54.486;9.046;2023-02-21T12:52:48;15.90;;;2.30;;
16837;SDS011;19510;54.486;9.046;2023-02-21T12:55:33;15.82;;;2.45;;
16837;SDS011;19510;54.486;9.046;2023-02-21T12:58:10;18.00;;;2.78;;
16837;SDS011;19510;54.486;9.046;2023-02-21T13:03:37;8.88;;;2.50;;
16837;SDS011;19510;54.486;9.046;2023-02-21T13:12:20;15.07;;;2.33;;
16837;SDS011;19510;54.486;9.046;2023-02-21T13:15:02;14.10;;;2.78;;
16837;SDS011;19510;54.486;9.046;2023-02-21T13:17:39;12.55;;;2.33;;
16837;SDS011;19510;54.486;9.046;2023-02-21T13:20:08;6.90;;;1.90;;
16837;SDS011;19510;54.486;9.046;2023-02-21T13:28:40;10.27;;;2.10;;
16837;SDS011;19510;54.486;9.046;2023-02-21T13:31:16;11.55;;;2.83;;
16837;SDS011;19510;54.486;9.046;2023-02-21T13:33:52;9.93;;;2.28;;
16837;SDS011;19510;54.486;9.046;2023-02-21T13:36:26;16.00;;;2.67;;
16837;SDS011;19510;54.486;9.046;2023-02-21T13:39:13;12.70;;;2.28;;
16837;SDS011;19510;54.486;9.046;2023-02-21T13:41:49;15.35;;;2.50;;
16837;SDS011;19510;54.486;9.046;2023-02-21T13:44:25;14.77;;;2.72;;
16837;SDS011;19510;54.486;9.046;2023-02-21T13:47:00;12.30;;;2.53;;
16837;SDS011;19510;54.486;9.046;2023-02-21T13:49:39;11.70;;;2.17;;
16837;SDS011;19510;54.486;9.046;2023-02-21T13:57:41;16.00;;;2.22;;
16837;SDS011;19510;54.486;9.046;2023-02-21T14:08:18;15.25;;;2.55;;
16837;SDS011;19510;54.486;9.046;2023-02-21T14:10:52;12.85;;;2.30;;
16837;SDS011;19510;54.486;9.046;2023-02-21T14:13:29;16.17;;;2.92;;
16837;SDS011;19510;54.486;9.046;2023-02-21T14:21:03;9.40;;;2.25;;
16837;SDS011;19510;54.486;9.046;2023-02-21T14:23:38;15.90;;;2.20;;
16837;SDS011;19510;54.486;9.046;2023-02-21T14:26:31;12.90;;;3.00;;
16837;SDS011;19510;54.486;9.046;2023-02-21T14:31:51;9.40;;;1.77;;
16837;SDS011;19510;54.486;9.046;2023-02-21T14:39:40;11.35;;;2.50;;
16837;SDS011;19510;54.486;9.046;2023-02-21T14:47:39;11.75;;;1.75;;
16837;SDS011;19510;54.486;9.046;2023-02-21T15:03:53;13.80;;;2.97;;
16837;SDS011;19510;54.486;9.046;2023-02-21T15:06:32;16.55;;;2.85;;
16837;SDS011;19510;54.486;9.046;2023-02-21T15:09:17;13.88;;;2.47;;
16837;SDS011;19510;54.486;9.046;2023-02-21T15:11:44;10.70;;;2.88;;
16837;SDS011;19510;54.486;9.046;2023-02-21T15:16:55;12.02;;;2.55;;
16837;SDS011;19510;54.486;9.046;2023-02-21T15:19:27;10.50;;;3.28;;
16837;SDS011;19510;54.486;9.046;2023-02-21T15:22:14;19.67;;;2.58;;
16837;SDS011;19510;54.486;9.046;2023-02-21T15:24:59;12.52;;;1.90;;
16837;SDS011;19510;54.486;9.046;2023-02-21T15:30:14;13.77;;;3.13;;
16837;SDS011;19510;54.486;9.046;2023-02-21T15:32:53;18.65;;;2.17;;
16837;SDS011;19510;54.486;9.046;2023-02-21T15:35:35;14.23;;;1.88;;
16837;SDS011;19510;54.486;9.046;2023-02-21T15:38:10;12.10;;;2.88;;
16837;SDS011;19510;54.486;9.046;2023-02-21T15:40:41;12.10;;;2.72;;
16837;SDS011;19510;54.486;9.046;2023-02-21T15:43:21;18.10;;;2.53;;
16837;SDS011;19510;54.486;9.046;2023-02-21T15:45:58;20.48;;;2.97;;
16837;SDS011;19510;54.486;9.046;2023-02-21T15:48:27;9.27;;;1.92;;
16837;SDS011;19510;54.486;9.046;2023-02-21T15:50:53;13.00;;;2.30;;
16837;SDS011;19510;54.486;9.046;2023-02-21T15:53:25;10.95;;;2.67;;
16837;SDS011;19510;54.486;9.046;2023-02-21T15:55:51;10.13;;;2.33;;
16837;SDS011;19510;54.486;9.046;2023-02-21T15:58:22;16.00;;;2.38;;
16837;SDS011;19510;54.486;9.046;2023-02-21T16:01:05;13.07;;;2.58;;
16837;SDS011;19510;54.486;9.046;2023-02-21T16:03:44;20.98;;;2.88;;
16837;SDS011;19510;54.486;9.046;2023-02-21T16:06:28;14.65;;;2.28;;
16837;SDS011;19510;54.486;9.046;2023-02-21T16:14:45;9.48;;;2.05;;
16837;SDS011;19510;54.486;9.046;2023-02-21T16:17:29;9.15;;;1.70;;
16837;SDS011;19510;54.486;9.046;2023-02-21T16:20:01;12.60;;;2.67;;
16837;SDS011;19510;54.486;9.046;2023-02-21T16:22:45;18.08;;;2.65;;
16837;SDS011;19510;54.486;9.046;2023-02-21T16:25:20;12.38;;;2.20;;
16837;SDS011;19510;54.486;9.046;2023-02-21T16:27:57;8.75;;;1.90;;
16837;SDS011;19510;54.486;9.046;2023-02-21T16:30:30;11.52;;;2.20;;
16837;SDS011;19510;54.486;9.046;2023-02-21T16:33:00;15.57;;;2.92;;
16837;SDS011;19510;54.486;9.046;2023-02-21T16:35:34;12.35;;;4.43;;
16837;SDS011;19510;54.486;9.046;2023-02-21T16:38:00;11.15;;;2.08;;
16837;SDS011;19510;54.486;9.046;2023-02-21T16:40:27;7.75;;;2.15;;
16837;SDS011;19510;54.486;9.046;2023-02-21T16:43:00;17.23;;;3.10;;
16837;SDS011;19510;54.486;9.046;2023-02-21T16:45:28;11.10;;;2.13;;
16837;SDS011;19510;54.486;9.046;2023-02-21T16:48:01;12.55;;;2.25;;
16837;SDS011;19510;54.486;9.046;2023-02-21T16:52:56;8.70;;;2.05;;
16837;SDS011;19510;54.486;9.046;2023-02-21T16:55:25;10.13;;;2.35;;
16837;SDS011;19510;54.486;9.046;2023-02-21T16:57:52;7.13;;;1.48;;
16837;SDS011;19510;54.486;9.046;2023-02-21T17:00:20;10.23;;;1.95;;
16837;SDS011;19510;54.486;9.046;2023-02-21T17:02:49;12.38;;;4.55;;
16837;SDS011;19510;54.486;9.046;2023-02-21T17:05:18;19.48;;;4.90;;
16837;SDS011;19510;54.486;9.046;2023-02-21T17:07:48;9.35;;;2.33;;
16837;SDS011;19510;54.486;9.046;2023-02-21T17:10:15;12.65;;;2.17;;
16837;SDS011;19510;54.486;9.046;2023-02-21T17:12:41;11.20;;;2.35;;
16837;SDS011;19510;54.486;9.046;2023-02-21T17:15:07;12.23;;;2.47;;
16837;SDS011;19510;54.486;9.046;2023-02-21T17:17:35;9.57;;;2.40;;
16837;SDS011;19510;54.486;9.046;2023-02-21T17:20:01;16.75;;;2.95;;
16837;SDS011;19510;54.486;9.046;2023-02-21T17:22:27;9.98;;;3.22;;
16837;SDS011;19510;54.486;9.046;2023-02-21T17:24:53;11.02;;;2.75;;
16837;SDS011;19510;54.486;9.046;2023-02-21T17:27:20;15.40;;;2.88;;
16837;SDS011;19510;54.486;9.046;2023-02-21T17:29:46;11.75;;;2.83;;
16837;SDS011;19510;54.486;9.046;2023-02-21T17:32:15;9.43;;;2.75;;
16837;SDS011;19510;54.486;9.046;2023-02-21T17:34:40;10.10;;;2.50;;
16837;SDS011;19510;54.486;9.046;2023-02-21T17:37:07;7.60;;;2.25;;
16837;SDS011;19510;54.486;9.046;2023-02-21T17:39:34;6.20;;;1.77;;
16837;SDS011;19510;54.486;9.046;2023-02-21T17:42:03;7.28;;;2.20;;
16837;SDS011;19510;54.486;9.046;2023-02-21T17:44:28;10.73;;;2.70;;
16837;SDS011;19510;54.486;9.046;2023-02-21T17:46:55;30.45;;;12.27;;
16837;SDS011;19510;54.486;9.046;2023-02-21T17:49:23;30.08;;;12.55;;
16837;SDS011;19510;54.486;9.046;2023-02-21T17:51:51;56.92;;;22.23;;
16837;SDS011;19510;54.486;9.046;2023-02-21T17:54:18;30.67;;;11.90;;
16837;SDS011;19510;54.486;9.046;2023-02-21T17:56:46;24.20;;;10.18;;
16837;SDS011;19510;54.486;9.046;2023-02-21T17:59:12;21.92;;;7.88;;
16837;SDS011;19510;54.486;9.046;2023-02-21T18:01:38;18.13;;;5.75;;
16837;SDS011;19510;54.486;9.046;2023-02-21T18:04:07;15.05;;;5.13;;
16837;SDS011;19510;54.486;9.046;2023-02-21T18:06:34;10.98;;;3.83;;
16837;SDS011;19510;54.486;9.046;2023-02-21T18:09:00;15.60;;;3.55;;
16837;SDS011;19510;54.486;9.046;2023-02-21T18:11:32;13.25;;;3.35;;
16837;SDS011;19510;54.486;9.046;2023-02-21T18:14:04;12.20;;;2.78;;
16837;SDS011;19510;54.486;9.046;2023-02-21T18:16:30;13.93;;;1.95;;
16837;SDS011;19510;54.486;9.046;2023-02-21T18:18:58;10.02;;;2.53;;
16837;SDS011;19510;54.486;9.046;2023-02-21T18:21:24;7.82;;;2.10;;
16837;SDS011;19510;54.486;9.046;2023-02-21T18:23:52;9.05;;;2.13;;
16837;SDS011;19510;54.486;9.046;2023-02-21T18:26:18;8.77;;;2.55;;
16837;SDS011;19510;54.486;9.046;2023-02-21T18:28:46;6.20;;;2.30;;
16837;SDS011;19510;54.486;9.046;2023-02-21T18:31:16;10.18;;;2.65;;
16837;SDS011;19510;54.486;9.046;2023-02-21T18:33:42;10.95;;;3.40;;
16837;SDS011;19510;54.486;9.046;2023-02-21T18:36:12;11.10;;;2.78;;
16837;SDS011;19510;54.486;9.046;2023-02-21T18:38:38;9.48;;;2.67;;
16837;SDS011;19510;54.486;9.046;2023-02-21T18:41:13;19.05;;;4.97;;
16837;SDS011;19510;54.486;9.046;2023-02-21T18:43:41;12.25;;;4.20;;
16837;SDS011;19510;54.486;9.046;2023-02-21T18:46:18;14.63;;;5.63;;
16837;SDS011;19510;54.486;9.046;2023-02-21T18:48:48;15.07;;;4.78;;
16837;SDS011;19510;54.486;9.046;2023-02-21T18:51:17;9.82;;;3.25;;
16837;SDS011;19510;54.486;9.046;2023-02-21T18:53:44;9.38;;;4.55;;
16837;SDS011;19510;54.486;9.046;2023-02-21T18:56:13;11.27;;;4.03;;
16837;SDS011;19510;54.486;9.046;2023-02-21T18:58:46;8.88;;;3.03;;
16837;SDS011;19510;54.486;9.046;2023-02-21T19:01:15;6.10;;;2.80;;
16837;SDS011;19510;54.486;9.046;2023-02-21T19:03:50;7.40;;;2.95;;
16837;SDS011;19510;54.486;9.046;2023-02-21T19:06:18;5.82;;;2.75;;
16837;SDS011;19510;54.486;9.046;2023-02-21T19:08:45;11.85;;;3.58;;
16837;SDS011;19510;54.486;9.046;2023-02-21T19:11:14;12.63;;;3.38;;
16837;SDS011;19510;54.486;9.046;2023-02-21T19:13:40;6.00;;;3.28;;
16837;SDS011;19510;54.486;9.046;2023-02-21T19:16:11;10.38;;;3.28;;
16837;SDS011;19510;54.486;9.046;2023-02-21T19:18:42;7.03;;;3.35;;
16837;SDS011;19510;54.486;9.046;2023-02-21T19:21:07;8.65;;;2.40;;
16837;SDS011;19510;54.486;9.046;2023-02-21T19:23:39;10.57;;;3.03;;
16837;SDS011;19510;54.486;9.046;2023-02-21T19:26:06;10.93;;;3.67;;
16837;SDS011;19510;54.486;9.046;2023-02-21T19:28:34;9.88;;;3.58;;
16837;SDS011;19510;54.486;9.046;2023-02-21T19:31:02;14.02;;;4.50;;
16837;SDS011;19510;54.486;9.046;2023-02-21T19:33:28;12.48;;;5.80;;
16837;SDS011;19510;54.486;9.046;2023-02-21T19:35:54;12.70;;;6.55;;
16837;SDS011;19510;54.486;9.046;2023-02-21T19:38:22;16.65;;;7.30;;
16837;SDS011;19510;54.486;9.046;2023-02-21T19:40:48;24.40;;;10.23;;
16837;SDS011;19510;54.486;9.046;2023-02-21T19:43:14;24.38;;;12.93;;
16837;SDS011;19510;54.486;9.046;2023-02-21T19:45:40;24.63;;;13.35;;
16837;SDS011;19510;54.486;9.046;2023-02-21T19:48:07;19.63;;;10.75;;
16837;SDS011;19510;54.486;9.046;2023-02-21T19:50:33;23.27;;;10.40;;
16837;SDS011;19510;54.486;9.046;2023-02-21T19:52:59;18.98;;;9.07;;
16837;SDS011;19510;54.486;9.046;2023-02-21T19:55:27;14.90;;;7.47;;
16837;SDS011;19510;54.486;9.046;2023-02-21T19:57:56;14.32;;;8.20;;
16837;SDS011;19510;54.486;9.046;2023-02-21T20:00:22;17.20;;;7.35;;
16837;SDS011;19510;54.486;9.046;2023-02-21T20:02:51;15.32;;;6.53;;
16837;SDS011;19510;54.486;9.046;2023-02-21T20:05:17;12.50;;;6.78;;
16837;SDS011;19510;54.486;9.046;2023-02-21T20:07:43;17.10;;;6.72;;
16837;SDS011;19510;54.486;9.046;2023-02-21T20:10:11;14.82;;;6.80;;
16837;SDS011;19510;54.486;9.046;2023-02-21T20:12:37;19.95;;;7.72;;
16837;SDS011;19510;54.486;9.046;2023-02-21T20:15:03;31.80;;;15.88;;
16837;SDS011;19510;54.486;9.046;2023-02-21T20:17:33;16.15;;;7.72;;
16837;SDS011;19510;54.486;9.046;2023-02-21T20:19:59;18.88;;;6.70;;
16837;SDS011;19510;54.486;9.046;2023-02-21T20:22:25;16.40;;;6.43;;
16837;SDS011;19510;54.486;9.046;2023-02-21T20:24:57;13.20;;;6.03;;
16837;SDS011;19510;54.486;9.046;2023-02-21T20:27:24;16.83;;;7.05;;
16837;SDS011;19510;54.486;9.046;2023-02-21T20:29:49;20.80;;;7.47;;
16837;SDS011;19510;54.486;9.046;2023-02-21T20:32:15;18.33;;;8.15;;
16837;SDS011;19510;54.486;9.046;2023-02-21T20:34:42;22.45;;;7.47;;
16837;SDS011;19510;54.486;9.046;2023-02-21T20:39:50;17.00;;;7.70;;
16837;SDS011;19510;54.486;9.046;2023-02-21T20:42:16;20.35;;;7.68;;
16837;SDS011;19510;54.486;9.046;2023-02-21T20:44:44;22.55;;;7.90;;
16837;SDS011;19510;54.486;9.046;2023-02-21T20:47:12;27.52;;;8.05;;
16837;SDS011;19510;54.486;9.046;2023-02-21T20:49:41;15.57;;;6.78;;
16837;SDS011;19510;54.486;9.046;2023-02-21T20:52:07;24.42;;;6.88;;
16837;SDS011;19510;54.486;9.046;2023-02-21T20:54:33;16.60;;;6.85;;
16837;SDS011;19510;54.486;9.046;2023-02-21T20:56:59;13.13;;;6.32;;
16837;SDS011;19510;54.486;9.046;2023-02-21T20:59:25;11.88;;;6.07;;
16837;SDS011;19510;54.486;9.046;2023-02-21T21:01:54;13.82;;;6.53;;
16837;SDS011;19510;54.486;9.046;2023-02-21T21:04:23;10.75;;;5.35;;
16837;SDS011;19510;54.486;9.046;2023-02-21T21:06:53;11.82;;;5.80;;
16837;SDS011;19510;54.486;9.046;2023-02-21T21:09:21;11.68;;;5.63;;
16837;SDS011;19510;54.486;9.046;2023-02-21T21:11:53;10.13;;;4.90;;
16837;SDS011;19510;54.486;9.046;2023-02-21T21:14:28;14.48;;;6.35;;
16837;SDS011;19510;54.486;9.046;2023-02-21T21:16:55;26.33;;;6.25;;
16837;SDS011;19510;54.486;9.046;2023-02-21T21:19:26;17.38;;;5.43;;
16837;SDS011;19510;54.486;9.046;2023-02-21T21:21:57;13.07;;;5.70;;
16837;SDS011;19510;54.486;9.046;2023-02-21T21:24:23;9.82;;;4.90;;
16837;SDS011;19510;54.486;9.046;2023-02-21T21:26:48;18.63;;;8.45;;
16837;SDS011;19510;54.486;9.046;2023-02-21T21:29:18;11.20;;;5.18;;
16837;SDS011;19510;54.486;9.046;2023-02-21T21:31:49;9.63;;;4.90;;
16837;SDS011;19510;54.486;9.046;2023-02-21T21:34:17;7.15;;;3.63;;
16837;SDS011;19510;54.486;9.046;2023-02-21T21:36:47;9.52;;;4.47;;
16837;SDS011;19510;54.486;9.046;2023-02-21T21:39:20;8.50;;;3.90;;
16837;SDS011;19510;54.486;9.046;2023-02-21T21:41:52;6.97;;;3.50;;
16837;SDS011;19510;54.486;9.046;2023-02-21T21:44:22;5.50;;;3.33;;
16837;SDS011;19510;54.486;9.046;2023-02-21T21:46:50;7.47;;;3.97;;
16837;SDS011;19510;54.486;9.046;2023-02-21T21:49:17;8.13;;;4.35;;
16837;SDS011;19510;54.486;9.046;2023-02-21T21:51:45;8.80;;;5.10;;
16837;SDS011;19510;54.486;9.046;2023-02-21T21:54:13;11.18;;;6.38;;
16837;SDS011;19510;54.486;9.046;2023-02-21T21:56:40;10.85;;;6.57;;
16837;SDS011;19510;54.486;9.046;2023-02-21T21:59:16;10.75;;;7.13;;
16837;SDS011;19510;54.486;9.046;2023-02-21T22:02:02;14.68;;;8.38;;
16837;SDS011;19510;54.486;9.046;2023-02-21T22:04:28;13.65;;;7.97;;
16837;SDS011;19510;54.486;9.046;2023-02-21T22:06:54;11.65;;;6.20;;
16837;SDS011;19510;54.486;9.046;2023-02-21T22:09:22;8.10;;;5.55;;
16837;SDS011;19510;54.486;9.046;2023-02-21T22:11:49;7.47;;;4.70;;
16837;SDS011;19510;54.486;9.046;2023-02-21T22:14:16;7.53;;;4.88;;
16837;SDS011;19510;54.486;9.046;2023-02-21T22:16:45;6.95;;;4.43;;
16837;SDS011;19510;54.486;9.046;2023-02-21T22:19:12;9.15;;;5.47;;
16837;SDS011;19510;54.486;9.046;2023-02-21T22:21:41;6.45;;;4.47;;
16837;SDS011;19510;54.486;9.046;2023-02-21T22:24:08;5.78;;;4.00;;
16837;SDS011;19510;54.486;9.046;2023-02-21T22:26:39;4.50;;;2.88;;
16837;SDS011;19510;54.486;9.046;2023-02-21T22:29:11;6.43;;;3.53;;
16837;SDS011;19510;54.486;9.046;2023-02-21T22:31:40;6.03;;;3.30;;
16837;SDS011;19510;54.486;9.046;2023-02-21T22:34:06;8.15;;;4.88;;
16837;SDS011;19510;54.486;9.046;2023-02-21T22:36:33;6.47;;;3.90;;
16837;SDS011;19510;54.486;9.046;2023-02-21T22:39:02;6.25;;;4.13;;
16837;SDS011;19510;54.486;9.046;2023-02-21T22:41:38;6.60;;;3.97;;
16837;SDS011;19510;54.486;9.046;2023-02-21T22:44:03;5.75;;;3.67;;
16837;SDS011;19510;54.486;9.046;2023-02-21T22:46:42;6.72;;;4.30;;
16837;SDS011;19510;54.486;9.046;2023-02-21T22:49:10;6.80;;;4.70;;
16837;SDS011;19510;54.486;9.046;2023-02-21T22:51:36;5.95;;;4.30;;
16837;SDS011;19510;54.486;9.046;2023-02-21T22:54:03;9.27;;;4.93;;
16837;SDS011;19510;54.486;9.046;2023-02-21T22:56:29;7.85;;;4.63;;
16837;SDS011;19510;54.486;9.046;2023-02-21T22:59:02;8.32;;;4.60;;
16837;SDS011;19510;54.486;9.046;2023-02-21T23:01:31;9.30;;;5.32;;
16837;SDS011;19510;54.486;9.046;2023-02-21T23:03:58;9.52;;;5.97;;
16837;SDS011;19510;54.486;9.046;2023-02-21T23:06:37;10.05;;;5.50;;